createdAt,value
2022-12-03T00:01:34.283Z,101725.69
2022-12-03T00:04:03.094Z,101725.17
2022-12-03T00:06:34.666Z,101721.42
2022-12-03T00:09:04.559Z,101717.98
2022-12-03T00:11:33.652Z,101719.99
2022-12-03T00:14:05.006Z,101720.33
2022-12-03T00:16:34.147Z,101718.51
2022-12-03T00:19:02.769Z,101720.56
2022-12-03T00:21:31.475Z,101718.05
2022-12-03T00:24:00.083Z,101716.15
2022-12-03T00:26:28.819Z,101712.24
2022-12-03T00:28:57.586Z,101714.07
2022-12-03T00:31:26.591Z,101710.91
2022-12-03T00:33:55.710Z,101710.43
2022-12-03T00:36:24.085Z,101710.70
2022-12-03T00:38:52.824Z,101706.73
2022-12-03T00:41:21.076Z,101705.80
2022-12-03T00:43:49.491Z,101703.88
2022-12-03T00:46:21.259Z,101704.39
2022-12-03T00:48:51.950Z,101703.73
2022-12-03T00:51:20.826Z,101705.84
2022-12-03T00:53:49.551Z,101706.00
2022-12-03T00:56:17.940Z,101705.23
2022-12-03T00:58:49.291Z,101705.81
2022-12-03T01:01:17.680Z,101702.31
2022-12-03T01:03:46.552Z,101700.30
2022-12-03T01:06:18.819Z,101697.45
2022-12-03T01:08:47.375Z,101697.46
2022-12-03T01:11:34.087Z,101697.22
2022-12-03T01:14:03.184Z,101689.05
2022-12-03T01:16:33.049Z,101696.52
2022-12-03T01:19:01.862Z,101694.20
2022-12-03T01:21:30.704Z,101688.16
2022-12-03T01:23:59.348Z,101690.35
2022-12-03T01:26:27.966Z,101691.29
2022-12-03T01:28:57.553Z,101689.92
2022-12-03T01:31:44.849Z,101692.07
2022-12-03T01:34:16.979Z,101691.52
2022-12-03T01:36:45.440Z,101689.90
2022-12-03T01:39:17.332Z,101688.29
2022-12-03T01:41:48.002Z,101690.90
2022-12-03T01:44:19.882Z,101689.81
2022-12-03T01:46:51.035Z,101685.55
2022-12-03T01:49:22.245Z,101687.96
2022-12-03T01:51:54.793Z,101688.44
2022-12-03T01:54:36.423Z,101695.15
2022-12-03T01:57:05.543Z,101694.13
2022-12-03T01:59:38.705Z,101691.88
2022-12-03T02:02:13.862Z,101690.58
2022-12-03T02:04:45.247Z,101688.00
2022-12-03T02:07:22.208Z,101688.00
2022-12-03T02:09:50.788Z,101688.84
2022-12-03T02:12:22.947Z,101692.48
2022-12-03T02:14:54.912Z,101691.38
2022-12-03T02:17:25.660Z,101692.71
2022-12-03T02:19:55.166Z,101691.79
2022-12-03T02:22:40.544Z,101695.23
2022-12-03T02:25:15.662Z,101695.36
2022-12-03T02:27:44.873Z,101687.33
2022-12-03T02:30:16.232Z,101689.70
2022-12-03T02:32:44.816Z,101688.58
2022-12-03T02:35:32.621Z,101687.63
2022-12-03T02:38:14.151Z,101682.78
2022-12-03T02:40:45.620Z,101684.20
2022-12-03T02:43:19.459Z,101683.98
2022-12-03T02:45:51.261Z,101680.88
2022-12-03T02:48:23.631Z,101687.15
2022-12-03T02:50:54.433Z,101688.23
2022-12-03T02:53:27.104Z,101692.35
2022-12-03T02:55:57.881Z,101689.17
2022-12-03T02:58:27.997Z,101684.75
2022-12-03T03:00:58.594Z,101686.95
2022-12-03T03:03:30.052Z,101686.34
2022-12-03T03:06:01.642Z,101685.75
2022-12-03T03:08:33.564Z,101688.80
2022-12-03T03:11:03.183Z,101688.17
2022-12-03T03:13:33.231Z,101685.93
2022-12-03T03:16:02.922Z,101687.27
2022-12-03T03:18:35.321Z,101687.63
2022-12-03T03:21:04.922Z,101687.54
2022-12-03T03:23:33.829Z,101681.54
2022-12-03T03:26:05.166Z,101679.30
2022-12-03T03:28:37.821Z,101682.61
2022-12-03T03:31:09.203Z,101679.22
2022-12-03T03:33:39.322Z,101675.64
2022-12-03T03:36:09.513Z,101674.14
2022-12-03T03:38:39.015Z,101674.45
2022-12-03T03:41:10.169Z,101671.85
2022-12-03T03:43:40.617Z,101669.71
2022-12-03T03:46:10.635Z,101670.90
2022-12-03T03:48:42.744Z,101668.29
2022-12-03T03:51:12.252Z,101667.67
2022-12-03T03:53:43.012Z,101665.80
2022-12-03T03:56:12.386Z,101660.86
2022-12-03T03:58:40.820Z,101659.55
2022-12-03T04:01:11.326Z,101660.28
2022-12-03T04:03:39.963Z,101660.52
2022-12-03T04:06:10.725Z,101662.21
2022-12-03T04:08:39.141Z,101662.89
2022-12-03T04:11:26.727Z,101663.77
2022-12-03T04:13:55.252Z,101666.35
2022-12-03T04:16:23.751Z,101666.80
2022-12-03T04:18:52.202Z,101665.12
2022-12-03T04:21:41.645Z,101663.66
2022-12-03T04:24:11.422Z,101656.98
2022-12-03T04:26:58.621Z,101655.77
2022-12-03T04:29:29.802Z,101657.51
2022-12-03T04:32:17.863Z,101659.13
2022-12-03T04:35:04.678Z,101656.45
2022-12-03T04:37:33.361Z,101654.59
2022-12-03T04:40:22.381Z,101651.58
2022-12-03T04:42:51.076Z,101651.14
2022-12-03T04:45:19.866Z,101649.44
2022-12-03T04:47:48.626Z,101653.76
2022-12-03T04:50:32.480Z,101652.63
2022-12-03T04:53:00.910Z,101651.25
2022-12-03T04:55:29.773Z,101650.34
2022-12-03T04:57:58.123Z,101650.03
2022-12-03T05:00:26.516Z,101645.92
2022-12-03T05:02:57.158Z,101645.06
2022-12-03T05:05:25.816Z,101649.56
2022-12-03T05:07:54.458Z,101649.57
2022-12-03T05:10:23.109Z,101648.59
2022-12-03T05:12:51.734Z,101649.81
2022-12-03T05:15:20.450Z,101649.23
2022-12-03T05:17:49.354Z,101650.54
2022-12-03T05:20:45.848Z,101646.40
2022-12-03T05:23:18.204Z,101645.20
2022-12-03T05:25:46.766Z,101638.38
2022-12-03T05:28:17.711Z,101641.18
2022-12-03T05:30:46.096Z,101633.17
2022-12-03T05:33:17.324Z,101624.55
2022-12-03T05:35:46.497Z,101625.11
2022-12-03T05:38:15.732Z,101628.40
2022-12-03T05:40:44.488Z,101622.88
2022-12-03T05:43:12.933Z,101621.46
2022-12-03T05:45:43.576Z,101618.66
2022-12-03T05:48:15.256Z,101620.36
2022-12-03T05:50:45.598Z,101623.54
2022-12-03T05:53:20.591Z,101624.61
2022-12-03T05:55:49.017Z,101621.61
2022-12-03T05:58:17.382Z,101624.53
2022-12-03T06:00:46.112Z,101625.90
2022-12-03T06:03:17.232Z,101619.61
2022-12-03T06:05:45.694Z,101614.60
2022-12-03T06:08:16.310Z,101615.71
2022-12-03T06:10:47.788Z,101614.73
2022-12-03T06:13:16.852Z,101616.29
2022-12-03T06:15:45.348Z,101618.95
2022-12-03T06:18:14.009Z,101619.90
2022-12-03T06:20:44.363Z,101626.77
2022-12-03T06:23:12.763Z,101621.31
2022-12-03T06:25:41.166Z,101629.27
2022-12-03T06:28:09.902Z,101634.70
2022-12-03T06:30:38.257Z,101636.17
2022-12-03T06:33:11.365Z,101636.61
2022-12-03T06:35:39.955Z,101639.73
2022-12-03T06:38:10.417Z,101642.05
2022-12-03T06:40:38.813Z,101645.91
2022-12-03T06:43:07.528Z,101648.08
2022-12-03T06:45:36.349Z,101649.16
2022-12-03T06:48:08.795Z,101648.09
2022-12-03T06:50:43.324Z,101653.22
2022-12-03T06:53:12.115Z,101652.56
2022-12-03T06:55:40.617Z,101656.50
2022-12-03T06:58:09.005Z,101653.77
2022-12-03T07:00:37.510Z,101653.61
2022-12-03T07:03:06.823Z,101650.90
2022-12-03T07:05:35.390Z,101650.84
2022-12-03T07:08:05.937Z,101649.27
2022-12-03T07:10:34.314Z,101652.42
2022-12-03T07:13:03.765Z,101656.04
2022-12-03T07:15:32.830Z,101654.52
2022-12-03T07:18:01.221Z,101650.89
2022-12-03T07:20:29.729Z,101652.92
2022-12-03T07:22:59.160Z,101649.71
2022-12-03T07:25:28.455Z,101646.39
2022-12-03T07:27:57.032Z,101647.54
2022-12-03T07:30:27.432Z,101643.77
2022-12-03T07:32:55.939Z,101641.68
2022-12-03T07:35:24.798Z,101639.60
2022-12-03T07:37:53.266Z,101633.59
2022-12-03T07:40:21.701Z,101634.21
2022-12-03T07:42:50.035Z,101632.49
2022-12-03T07:45:18.828Z,101632.27
2022-12-03T07:47:47.427Z,101630.86
2022-12-03T07:50:20.497Z,101626.17
2022-12-03T07:52:51.136Z,101619.88
2022-12-03T07:55:19.540Z,101624.39
2022-12-03T07:57:48.373Z,101629.30
2022-12-03T08:00:20.946Z,101634.95
2022-12-03T08:02:49.733Z,101632.35
2022-12-03T08:05:22.449Z,101635.48
2022-12-03T08:07:51.192Z,101629.86
2022-12-03T08:10:19.988Z,101630.73
2022-12-03T08:12:48.459Z,101631.23
2022-12-03T08:15:23.443Z,101627.12
2022-12-03T08:17:58.060Z,101626.75
2022-12-03T08:20:28.516Z,101630.29
2022-12-03T08:22:59.651Z,101631.15
2022-12-03T08:25:30.935Z,101629.27
2022-12-03T08:28:12.109Z,101629.73
2022-12-03T08:30:41.252Z,101632.65
2022-12-03T08:33:23.580Z,101637.42
2022-12-03T08:35:52.394Z,101640.25
2022-12-03T08:38:24.733Z,101640.42
2022-12-03T08:40:55.294Z,101638.88
2022-12-03T08:43:25.840Z,101637.52
2022-12-03T08:45:55.949Z,101638.38
2022-12-03T08:48:36.320Z,101641.90
2022-12-03T08:51:13.692Z,101639.28
2022-12-03T08:53:47.462Z,101634.88
2022-12-03T08:56:24.539Z,101631.31
2022-12-03T08:58:55.193Z,101629.66
2022-12-03T09:01:44.705Z,101629.22
2022-12-03T09:04:23.539Z,101627.83
2022-12-03T09:06:53.854Z,101624.08
2022-12-03T09:09:23.153Z,101625.98
2022-12-03T09:11:52.497Z,101621.33
2022-12-03T09:14:22.108Z,101621.38
2022-12-03T09:16:54.985Z,101618.16
2022-12-03T09:19:25.272Z,101614.33
2022-12-03T09:21:54.473Z,101613.95
2022-12-03T09:24:25.799Z,101606.95
2022-12-03T09:26:54.813Z,101606.73
2022-12-03T09:29:24.527Z,101608.88
2022-12-03T09:31:54.849Z,101609.48
2022-12-03T09:34:23.337Z,101607.21
2022-12-03T09:36:51.963Z,101604.12
2022-12-03T09:39:20.476Z,101599.02
2022-12-03T09:41:50.034Z,101598.31
2022-12-03T09:44:22.768Z,101599.30
2022-12-03T09:46:51.841Z,101600.98
2022-12-03T09:49:20.571Z,101601.70
2022-12-03T09:51:49.344Z,101600.95
2022-12-03T09:54:23.633Z,101597.98
2022-12-03T09:56:54.019Z,101595.23
2022-12-03T09:59:26.875Z,101589.27
2022-12-03T10:01:55.852Z,101587.73
2022-12-03T10:04:24.761Z,101594.06
2022-12-03T10:06:53.330Z,101587.71
2022-12-03T10:09:26.615Z,101585.95
2022-12-03T10:11:56.483Z,101583.74
2022-12-03T10:14:27.069Z,101582.85
2022-12-03T10:16:56.598Z,101579.28
2022-12-03T10:19:28.723Z,101579.98
2022-12-03T10:21:57.731Z,101583.80
2022-12-03T10:24:33.388Z,101582.02
2022-12-03T10:27:04.044Z,101583.30
2022-12-03T10:29:35.069Z,101581.41
2022-12-03T10:32:07.053Z,101586.19
2022-12-03T10:34:42.272Z,101586.80
2022-12-03T10:37:14.433Z,101590.08
2022-12-03T10:40:01.174Z,101577.13
2022-12-03T10:42:32.815Z,101578.45
2022-12-03T10:45:17.896Z,101574.45
2022-12-03T10:48:28.528Z,101569.58
2022-12-03T10:51:03.804Z,101575.33
2022-12-03T10:53:35.297Z,101568.23
2022-12-03T10:56:06.779Z,101568.64
2022-12-03T10:58:39.381Z,101568.54
2022-12-03T11:01:18.711Z,101564.65
2022-12-03T11:03:48.500Z,101559.38
2022-12-03T11:06:21.689Z,101561.20
2022-12-03T11:08:58.449Z,101557.26
2022-12-03T11:11:31.872Z,101557.02
2022-12-03T11:14:03.781Z,101560.80
2022-12-03T11:17:06.747Z,101564.81
2022-12-03T11:19:49.495Z,101560.85
2022-12-03T11:22:26.343Z,101556.47
2022-12-03T11:25:26.836Z,101562.58
2022-12-03T11:28:34.846Z,101564.70
2022-12-03T11:31:11.175Z,101557.55
2022-12-03T11:33:42.809Z,101553.83
2022-12-03T11:36:54.082Z,101553.84
2022-12-03T11:39:52.224Z,101555.71
2022-12-03T11:42:40.115Z,101552.31
2022-12-03T11:45:18.776Z,101544.62
2022-12-03T11:48:03.917Z,101535.54
2022-12-03T11:50:39.577Z,101530.83
2022-12-03T11:53:19.268Z,101536.88
2022-12-03T11:55:51.825Z,101526.52
2022-12-03T11:58:26.075Z,101526.79
2022-12-03T12:00:57.177Z,101529.96
2022-12-03T12:03:28.222Z,101529.52
2022-12-03T12:06:10.288Z,101528.91
2022-12-03T12:08:40.675Z,101532.20
2022-12-03T12:11:19.234Z,101529.86
2022-12-03T12:13:54.882Z,101532.10
2022-12-03T12:16:49.575Z,101535.14
2022-12-03T12:19:36.355Z,101536.41
2022-12-03T12:22:17.435Z,101534.30
2022-12-03T12:24:52.906Z,101536.68
2022-12-03T12:27:35.901Z,101535.45
2022-12-03T12:30:08.046Z,101535.23
2022-12-03T12:32:45.479Z,101534.25
2022-12-03T12:35:23.985Z,101528.30
2022-12-03T12:37:59.203Z,101528.67
2022-12-03T12:40:31.449Z,101530.64
2022-12-03T12:43:08.260Z,101536.64
2022-12-03T12:45:43.895Z,101537.63
2022-12-03T12:48:21.859Z,101539.26
2022-12-03T12:50:59.211Z,101539.31
2022-12-03T12:53:30.981Z,101534.84
2022-12-03T12:56:02.158Z,101531.22
2022-12-03T12:58:32.966Z,101530.10
2022-12-03T13:01:06.136Z,101529.84
2022-12-03T13:03:38.005Z,101526.60
2022-12-03T13:06:11.047Z,101525.38
2022-12-03T13:08:43.982Z,101525.84
2022-12-03T13:11:29.665Z,101524.65
2022-12-03T13:14:00.759Z,101520.19
2022-12-03T13:16:36.187Z,101523.96
2022-12-03T13:19:20.449Z,101528.64
2022-12-03T13:21:50.474Z,101531.23
2022-12-03T13:24:30.315Z,101530.26
2022-12-03T13:27:00.892Z,101533.55
2022-12-03T13:29:29.265Z,101534.10
2022-12-03T13:32:02.809Z,101532.09
2022-12-03T13:34:34.645Z,101535.68
2022-12-03T13:37:13.512Z,101533.89
2022-12-03T13:39:49.623Z,101529.33
2022-12-03T13:42:41.720Z,101533.38
2022-12-03T13:45:35.148Z,101537.31
2022-12-03T13:48:17.342Z,101532.71
2022-12-03T13:50:46.349Z,101534.20
2022-12-03T13:53:23.696Z,101534.48
2022-12-03T13:55:57.607Z,101536.04
2022-12-03T13:58:26.616Z,101532.56
2022-12-03T14:00:55.128Z,101532.77
2022-12-03T14:03:23.567Z,101530.49
2022-12-03T14:05:51.951Z,101537.63
2022-12-03T14:08:22.821Z,101537.55
2022-12-03T14:10:59.884Z,101544.62
2022-12-03T14:13:31.118Z,101546.75
2022-12-03T14:15:59.848Z,101545.93
2022-12-03T14:18:30.665Z,101548.33
2022-12-03T14:20:59.362Z,101546.54
2022-12-03T14:23:27.884Z,101547.91
2022-12-03T14:25:58.911Z,101547.14
2022-12-03T14:28:33.014Z,101546.08
2022-12-03T14:31:01.579Z,101543.51
2022-12-03T14:33:30.515Z,101544.98
2022-12-03T14:36:00.498Z,101544.25
2022-12-03T14:38:29.149Z,101549.13
2022-12-03T14:40:57.761Z,101545.84
2022-12-03T14:43:26.386Z,101542.24
2022-12-03T14:45:54.828Z,101543.96
2022-12-03T14:48:23.738Z,101541.09
2022-12-03T14:50:52.481Z,101540.17
2022-12-03T14:53:27.425Z,101538.14
2022-12-03T14:55:58.449Z,101532.01
2022-12-03T14:58:26.967Z,101534.96
2022-12-03T15:00:57.794Z,101545.66
2022-12-03T15:03:26.463Z,101552.45
2022-12-03T15:05:55.745Z,101557.36
2022-12-03T15:08:28.244Z,101557.15
2022-12-03T15:18:53.217Z,101559.67
2022-12-03T15:21:21.659Z,101561.61
2022-12-03T15:23:50.325Z,101565.98
2022-12-03T15:26:22.357Z,101573.16
2022-12-03T15:28:50.812Z,101570.14
2022-12-03T15:31:20.380Z,101565.02
2022-12-03T15:33:52.008Z,101568.75
2022-12-03T15:36:22.968Z,101573.63
2022-12-03T15:38:51.280Z,101578.76
2022-12-03T15:41:24.228Z,101584.72
2022-12-03T15:44:01.756Z,101582.99
2022-12-03T15:46:39.320Z,101584.60
2022-12-03T15:49:10.616Z,101581.29
2022-12-03T15:51:39.487Z,101584.38
2022-12-03T15:54:08.341Z,101580.80
2022-12-03T15:56:39.817Z,101581.14
2022-12-03T15:59:08.241Z,101581.13
2022-12-03T16:01:38.911Z,101588.55
2022-12-03T16:04:07.320Z,101591.99
2022-12-03T16:06:35.679Z,101591.19
2022-12-03T16:09:04.821Z,101589.11
2022-12-03T16:11:36.265Z,101587.56
2022-12-03T16:14:05.111Z,101592.80
2022-12-03T16:16:36.385Z,101591.73
2022-12-03T16:19:05.100Z,101589.89
2022-12-03T16:21:34.769Z,101592.91
2022-12-03T16:31:37.483Z,101598.69
2022-12-03T16:34:21.653Z,101596.82
2022-12-03T16:36:53.988Z,101596.09
2022-12-03T16:39:25.188Z,101597.16
2022-12-03T16:41:56.680Z,101598.80
2022-12-03T16:44:43.099Z,101597.95
2022-12-03T16:47:12.147Z,101604.20
2022-12-03T16:49:41.040Z,101602.70
2022-12-03T16:52:10.844Z,101598.45
2022-12-03T16:54:43.743Z,101600.96
2022-12-03T16:57:12.453Z,101596.54
2022-12-03T16:59:47.711Z,101593.11
2022-12-03T17:02:27.136Z,101594.17
2022-12-03T17:04:56.426Z,101592.17
2022-12-03T17:07:30.972Z,101589.73
2022-12-03T17:10:05.972Z,101587.56
2022-12-03T17:13:01.174Z,101586.17
2022-12-03T17:15:28.859Z,101589.25
2022-12-03T17:17:58.162Z,101588.50
2022-12-03T17:20:29.176Z,101577.58
2022-12-03T17:22:58.989Z,101579.17
2022-12-03T17:25:34.819Z,101580.23
2022-12-03T17:28:08.982Z,101578.69
2022-12-03T17:30:46.112Z,101580.55
2022-12-03T17:33:17.817Z,101578.41
2022-12-03T17:35:47.444Z,101579.09
2022-12-03T17:38:16.717Z,101583.18
2022-12-03T17:40:45.446Z,101584.52
2022-12-03T17:43:14.604Z,101579.34
2022-12-03T17:45:52.306Z,101579.20
2022-12-03T17:48:23.192Z,101582.31
2022-12-03T17:50:57.657Z,101581.44
2022-12-03T17:53:29.878Z,101582.20
2022-12-03T17:56:01.658Z,101582.33
2022-12-03T17:58:33.400Z,101580.84
2022-12-03T18:01:03.365Z,101578.83
2022-12-03T18:03:35.704Z,101578.84
2022-12-03T18:06:08.806Z,101576.69
2022-12-03T18:08:38.801Z,101574.23
2022-12-03T18:11:13.077Z,101565.21
2022-12-03T18:13:47.869Z,101560.73
2022-12-03T18:16:17.403Z,101552.02
2022-12-03T18:18:56.245Z,101548.16
2022-12-03T18:21:30.001Z,101543.08
2022-12-03T18:24:02.488Z,101545.98
2022-12-03T18:26:35.847Z,101545.25
2022-12-03T18:29:06.439Z,101543.79
2022-12-03T18:31:37.315Z,101549.63
2022-12-03T18:34:10.377Z,101553.94
2022-12-03T18:36:39.333Z,101551.90
2022-12-03T18:39:17.873Z,101557.02
2022-12-03T18:41:49.543Z,101561.93
2022-12-03T18:44:24.273Z,101561.59
2022-12-03T18:46:59.607Z,101566.46
2022-12-03T18:49:29.329Z,101571.46
2022-12-03T18:52:02.374Z,101577.17
2022-12-03T18:54:31.407Z,101571.98
2022-12-03T18:57:00.254Z,101568.73
2022-12-03T18:59:32.688Z,101569.45
2022-12-03T19:02:04.989Z,101569.59
2022-12-03T19:04:38.284Z,101570.34
2022-12-03T19:07:07.036Z,101570.79
2022-12-03T19:09:41.942Z,101566.67
2022-12-03T19:12:15.003Z,101558.59
2022-12-03T19:14:52.267Z,101558.54
2022-12-03T19:17:21.427Z,101560.33
2022-12-03T19:19:50.486Z,101562.38
2022-12-03T19:22:19.207Z,101564.30
2022-12-03T19:24:53.692Z,101563.17
2022-12-03T19:27:22.603Z,101569.84
2022-12-03T19:29:54.409Z,101568.14
2022-12-03T19:32:25.444Z,101575.07
2022-12-03T19:35:05.024Z,101572.03
2022-12-03T19:37:38.671Z,101565.75
2022-12-03T19:40:11.017Z,101564.23
2022-12-03T19:42:40.363Z,101570.23
2022-12-03T19:45:10.535Z,101575.20
2022-12-03T19:47:41.029Z,101576.81
2022-12-03T19:50:22.351Z,101579.80
2022-12-03T19:52:53.010Z,101581.46
2022-12-03T19:55:21.874Z,101584.16
2022-12-03T19:57:54.207Z,101583.33
2022-12-03T20:00:30.399Z,101581.05
2022-12-03T20:02:59.125Z,101576.95
2022-12-03T20:05:33.475Z,101574.92
2022-12-03T20:08:06.566Z,101570.44
2022-12-03T20:10:36.215Z,101567.13
2022-12-03T20:13:06.999Z,101564.04
2022-12-03T20:15:40.340Z,101564.89
2022-12-03T20:18:11.904Z,101556.73
2022-12-03T20:20:40.520Z,101560.55
2022-12-03T20:23:11.836Z,101558.52
2022-12-03T20:25:45.837Z,101554.01
2022-12-03T20:28:17.283Z,101555.43
2022-12-03T20:30:58.432Z,101565.77
2022-12-03T20:33:27.254Z,101560.11
2022-12-03T20:36:02.053Z,101562.78
2022-12-03T20:38:31.710Z,101574.59
2022-12-03T20:41:07.877Z,101576.00
2022-12-03T20:43:41.670Z,101571.50
2022-12-03T20:46:17.490Z,101575.23
2022-12-03T20:48:46.762Z,101576.71
2022-12-03T20:51:17.777Z,101570.35
2022-12-03T20:53:50.143Z,101576.66
2022-12-03T20:56:22.251Z,101581.73
2022-12-03T20:58:54.053Z,101577.96
2022-12-03T21:01:25.525Z,101574.73
2022-12-03T21:03:56.778Z,101575.38
2022-12-03T21:06:30.425Z,101573.95
2022-12-03T21:09:00.218Z,101580.30
2022-12-03T21:11:40.961Z,101578.68
2022-12-03T21:14:10.892Z,101575.06
2022-12-03T21:19:30.500Z,101587.78
2022-12-03T21:21:59.463Z,101579.66
2022-12-03T21:24:28.068Z,101581.36
2022-12-03T21:26:58.170Z,101583.89
2022-12-03T21:29:27.096Z,101574.28
2022-12-03T21:31:55.691Z,101583.67
2022-12-03T21:34:24.434Z,101590.02
2022-12-03T21:36:53.633Z,101592.38
2022-12-03T21:39:22.222Z,101590.49
2022-12-03T21:42:18.929Z,101596.16
2022-12-03T21:44:40.106Z,101598.30
2022-12-03T21:47:14.347Z,101599.24
2022-12-03T21:49:46.384Z,101597.36
2022-12-03T21:52:16.792Z,101597.13
2022-12-03T21:54:46.413Z,101593.46
2022-12-03T21:57:15.235Z,101589.56
2022-12-03T21:59:48.613Z,101591.46
2022-12-03T22:02:20.085Z,101588.99
2022-12-03T22:04:53.405Z,101583.39
2022-12-03T22:07:22.110Z,101585.86
2022-12-03T22:09:51.161Z,101585.77
2022-12-03T22:12:19.803Z,101590.23
2022-12-03T22:14:48.796Z,101587.55
2022-12-03T22:17:20.100Z,101588.55
2022-12-03T22:19:54.490Z,101577.61
2022-12-03T22:22:23.851Z,101570.21
2022-12-03T22:24:52.516Z,101568.92
2022-12-03T22:27:21.516Z,101570.91
2022-12-03T22:29:52.602Z,101570.80
2022-12-03T22:32:23.199Z,101567.44
2022-12-03T22:34:52.279Z,101567.23
2022-12-03T22:37:20.943Z,101558.59
2022-12-03T22:39:49.791Z,101563.55
2022-12-03T22:42:20.828Z,101567.70
2022-12-03T22:44:50.062Z,101570.84
2022-12-03T22:47:19.010Z,101574.33
2022-12-03T22:49:47.473Z,101570.61
2022-12-03T22:52:16.061Z,101564.74
2022-12-03T22:54:46.035Z,101561.67
2022-12-03T22:57:17.238Z,101570.34
2022-12-03T22:59:45.833Z,101566.73
2022-12-03T23:02:16.703Z,101568.30
2022-12-03T23:04:46.163Z,101567.63
2022-12-03T23:07:15.076Z,101570.06
2022-12-03T23:09:47.436Z,101573.80
2022-12-03T23:12:18.277Z,101573.61
2022-12-03T23:14:46.729Z,101571.67
2022-12-03T23:17:15.223Z,101577.21
2022-12-03T23:19:44.307Z,101577.05
2022-12-03T23:22:12.998Z,101565.99
2022-12-03T23:24:41.594Z,101564.95
2022-12-03T23:27:10.906Z,101561.64
2022-12-03T23:29:39.317Z,101557.56
2022-12-03T23:32:13.415Z,101559.61
2022-12-03T23:34:43.923Z,101561.70
2022-12-03T23:37:12.308Z,101564.93
2022-12-03T23:39:40.971Z,101560.86
2022-12-03T23:42:10.580Z,101560.11
2022-12-03T23:44:39.005Z,101554.79
2022-12-03T23:47:07.723Z,101550.91
2022-12-03T23:49:36.556Z,101552.48
2022-12-03T23:52:05.303Z,101547.48
2022-12-03T23:54:34.314Z,101545.90
2022-12-03T23:57:03.149Z,101543.64
2022-12-03T23:59:33.257Z,101539.52
